Latest Weather Observations for Cape Wessel

IDD60801

Issued at 8:31 pm CST Friday 31 July 2015 (issued every 30 minutes, with the page automatically refreshed every 10 minutes)

About weather observations | Map of weather stations | Latest weather observations for NT | Other Formats
Station Details ID: 200786 Name: CAPE WESSEL Lat: -11.00 Lon: 136.76 Height: 18.0 m
Data from the previous 72 hours. | See also: Recent months for locations in Northern Territory
Date/Time
CST
Temp
°C
App
Temp
°C
Dew
Point
Rel
Hum
%
Delta-T
°C
Wind Press
QNH
hPa
Press
MSL
hPa
Rain
since 9 am
mm
Dir
 
Spd
km/h
Gust
km/h
Spd
kts
Gust
kts
31/08:30pm 24.7 22.6 19.8 74 3.2 ESE 30 37 16 20 1013.7 - 0.0
31/08:00pm 24.8 23.2 20.1 75 3.0 ESE 28 35 15 19 1013.5 - 0.0
31/07:30pm 24.8 22.2 19.4 72 3.5 ESE 32 39 17 21 1013.1 - 0.0
31/07:00pm 24.9 22.4 19.7 73 3.4 E 32 39 17 21 1012.7 - 0.0
31/06:30pm 24.9 22.4 19.7 73 3.4 E 32 39 17 21 1012.5 - 0.0
31/06:00pm 25.2 22.7 19.8 72 3.5 E 32 39 17 21 1012.3 1012.2 0.0
31/05:30pm 25.8 23.5 20.1 71 3.7 E 32 39 17 21 1012.2 - 0.0
31/05:00pm 26.4 24.0 20.0 68 4.2 E 32 37 17 20 1012.1 - 0.0
31/04:30pm 26.2 23.6 19.6 67 4.3 E 32 43 17 23 1012.0 - 0.0
31/04:00pm 26.5 24.3 20.3 68 4.1 E 32 35 17 19 1012.1 - 0.0
31/03:30pm 27.9 25.5 19.9 61 5.2 ESE 32 41 17 22 1012.3 - 0.0
31/03:00pm 27.9 25.8 20.5 64 4.9 E 32 39 17 21 1012.5 1012.4 0.0
31/02:30pm 28.8 26.6 20.3 60 5.6 E 32 41 17 22 1012.8 - 0.0
31/02:00pm 28.8 26.5 20.5 61 5.5 E 33 41 18 22 1013.1 - 0.0
31/01:30pm 29.3 27.1 20.7 59 5.7 E 33 43 18 23 1013.7 - 0.0
31/01:00pm 29.6 27.9 21.3 61 5.6 E 32 41 17 22 1014.1 - 0.0
31/12:30pm 29.2 27.2 21.2 62 5.3 E 33 41 18 22 1014.5 - 0.0
31/12:00pm 28.9 26.8 20.9 62 5.3 E 33 43 18 23 1014.7 1014.6 0.0
31/11:30am 28.4 25.4 20.7 63 5.1 E 37 44 20 24 1015.1 - 0.0
31/11:00am 28.2 25.9 21.2 65 4.7 ESE 35 43 19 23 1015.4 - 0.0
31/10:30am 27.5 25.0 20.8 67 4.4 E 35 43 19 23 1015.6 - 0.0
31/10:00am 27.3 24.6 20.4 66 4.5 E 35 43 19 23 1015.8 - 0.0
31/09:30am 26.7 25.6 21.7 74 3.3 ESE 30 35 16 19 1016.0 - 0.0
31/09:00am 25.8 24.4 21.2 76 3.0 ESE 30 37 16 20 1016.1 1016.0 0.0
31/08:30am 26.0 23.8 20.8 73 3.4 ESE 33 41 18 22 1015.9 - 0.0
31/08:00am 24.7 22.8 21.0 80 2.4 SE 32 39 17 21 1015.7 - 0.0
31/07:30am 24.5 22.2 20.2 77 2.8 ESE 32 39 17 21 1015.3 - 0.0
31/07:00am 24.6 23.0 20.7 79 2.6 ESE 30 37 16 20 1015.1 - 0.0
31/06:30am 24.3 22.4 20.2 78 2.7 E 30 33 16 18 1014.8 - 0.0
31/06:00am 24.0 21.4 19.9 78 2.6 ESE 33 46 18 25 1014.5 1014.4 0.0
31/05:30am 23.4 18.8 20.1 82 2.1 E 44 57 24 31 1014.5 - 0.0
31/05:00am 23.0 16.8 20.0 83 1.9 E 52 61 28 33 1014.5 - 0.0
31/04:56am 23.3 16.7 19.9 81 2.2 E 54 61 29 33 1014.5 - 0.0
31/04:49am 24.7 21.4 20.8 79 2.6 SE 39 57 21 31 1014.4 - 0.0
31/04:30am 24.9 22.7 21.4 81 2.3 ESE 35 43 19 23 1014.4 - 0.0
31/04:00am 24.7 22.2 20.8 79 2.6 SE 35 43 19 23 1014.3 - 0.0
31/03:30am 24.6 22.1 20.9 80 2.4 SE 35 44 19 24 1014.5 - 0.0
31/03:00am 24.7 22.7 21.2 81 2.3 SE 33 41 18 22 1014.5 1014.4 0.0
31/02:30am 24.5 22.3 20.8 80 2.4 SE 33 41 18 22 1014.9 - 0.0
31/02:00am 24.6 22.8 21.1 81 2.3 SE 32 39 17 21 1015.1 - 0.0
31/01:30am 24.6 22.8 21.1 81 2.3 SE 32 41 17 22 1015.5 - 0.0
31/01:00am 24.7 23.0 21.4 82 2.2 SE 32 37 17 20 1015.7 - 0.0
31/12:30am 24.7 22.8 21.0 80 2.4 SE 32 37 17 20 1015.9 - 0.0
31/12:00am 24.6 23.4 20.9 80 2.4 SE 28 37 15 20 1016.0 1015.9 0.0
 
Date/Time
CST
Temp
°C
App
Temp
°C
Dew
Point
Rel
Hum
%
Delta-T
°C
Wind Press
QNH
hPa
Press
MSL
hPa
Rain
since 9 am
mm
Dir
 
Spd
km/h
Gust
km/h
Spd
kts
Gust
kts
30/11:30pm 24.7 22.6 20.6 78 2.7 SE 32 41 17 22 1016.1 - 0.0
30/11:00pm 24.8 23.0 21.1 80 2.4 SE 32 41 17 22 1016.1 - 0.0
30/10:30pm 24.9 22.5 21.0 79 2.6 ESE 35 41 19 22 1016.1 - 0.0
30/10:00pm 24.9 22.7 20.8 78 2.7 ESE 33 41 18 22 1016.2 - 0.0
30/09:30pm 25.1 23.3 21.2 79 2.6 ESE 32 41 17 22 1016.3 - 0.0
30/09:00pm 25.1 23.1 21.2 79 2.6 ESE 33 41 18 22 1016.0 1015.9 0.0
30/08:30pm 25.1 23.2 21.0 78 2.7 ESE 32 41 17 22 1015.8 - 0.0
30/08:00pm 25.3 23.2 21.0 77 2.8 ESE 33 41 18 22 1015.4 - 0.0
30/07:30pm 25.1 22.3 21.0 78 2.7 ESE 37 44 20 24 1015.0 - 0.0
30/07:00pm 25.1 22.1 21.4 80 2.4 ESE 39 46 21 25 1014.5 - 0.0
30/06:30pm 25.5 23.1 21.0 76 3.0 SE 35 43 19 23 1014.2 - 0.0
30/06:00pm 25.7 23.8 20.9 75 3.2 ESE 32 39 17 21 1014.0 1013.9 0.0
30/05:30pm 26.0 23.5 20.8 73 3.4 ESE 35 43 19 23 1013.9 - 0.0
30/05:00pm 26.6 24.5 20.9 71 3.8 ESE 33 41 18 22 1013.7 - 0.0
30/04:30pm 27.3 25.4 21.3 69 4.0 ESE 33 41 18 22 1013.5 - 0.0
30/04:00pm 27.4 25.3 21.0 68 4.2 ESE 33 41 18 22 1013.4 - 0.0
30/03:30pm 27.6 25.1 20.9 67 4.4 ESE 35 44 19 24 1013.4 - 0.0
30/03:00pm 28.6 27.0 21.9 67 4.5 ESE 33 43 18 23 1013.5 1013.4 0.0
30/02:30pm 28.3 25.8 20.8 63 5.0 ESE 35 44 19 24 1013.7 - 0.0
30/02:00pm 28.4 26.5 21.4 66 4.7 ESE 33 43 18 23 1014.3 - 0.0
30/01:30pm 29.1 27.4 21.3 62 5.2 ESE 32 43 17 23 1014.8 - 0.0
30/01:00pm 28.9 26.9 21.1 62 5.2 ESE 33 43 18 23 1015.1 - 0.0
30/12:30pm 29.4 27.9 22.1 65 4.9 ESE 33 43 18 23 1015.5 - 0.0
30/12:00pm 28.7 26.4 21.2 64 5.0 ESE 35 43 19 23 1016.0 1015.9 0.0
30/11:30am 28.8 26.4 21.0 62 5.2 ESE 35 46 19 25 1016.3 - 0.0
30/11:00am 28.3 26.4 21.3 65 4.7 ESE 33 43 18 23 1016.6 - 0.0
30/10:30am 28.2 26.6 21.5 67 4.5 ESE 32 43 17 23 1016.7 - 0.0
30/10:00am 27.8 26.2 21.6 69 4.1 ESE 32 43 17 23 1016.8 - 0.0
30/09:30am 27.7 26.0 21.7 70 4.0 ESE 33 41 18 22 1016.7 - 0.0
30/09:00am 27.3 25.5 21.6 71 3.8 ESE 33 43 18 23 1016.7 1016.6 0.0
30/08:30am 26.7 23.8 20.8 70 3.9 ESE 37 44 20 24 1016.4 - 0.0
30/08:00am 26.2 25.7 22.1 78 2.7 ESE 28 35 15 19 1016.0 - 0.0
30/07:30am 25.3 23.6 21.4 79 2.6 ESE 32 39 17 21 1015.8 - 0.0
30/07:00am 24.9 23.0 21.4 81 2.3 ESE 33 41 18 22 1015.5 - 0.0
30/06:30am 24.8 22.9 21.3 81 2.3 SE 33 44 18 24 1015.3 - 0.0
30/06:00am 24.8 23.0 21.5 82 2.2 SE 33 41 18 22 1015.1 1015.0 0.0
30/05:30am 24.6 22.9 21.3 82 2.2 SE 32 39 17 21 1015.0 - 0.0
30/05:00am 24.6 22.9 21.3 82 2.2 SE 32 41 17 22 1014.9 - 0.0
30/04:30am 24.6 23.1 21.7 84 1.9 SE 32 39 17 21 1014.9 - 0.0
30/04:00am 24.4 22.4 21.1 82 2.2 SE 33 43 18 23 1014.8 - 0.0
30/03:30am 24.4 22.9 20.9 81 2.3 SE 30 35 16 19 1015.2 - 0.0
30/03:00am 24.5 22.6 21.0 81 2.3 SE 32 39 17 21 1015.6 1015.5 0.0
30/02:30am 24.4 23.0 21.1 82 2.2 SE 30 37 16 20 1015.7 - 0.0
30/02:00am 24.3 22.0 20.6 80 2.4 SE 33 39 18 21 1015.8 - 0.0
30/01:30am 24.4 22.9 20.9 81 2.3 SE 30 39 16 21 1016.0 - 0.0
30/01:00am 24.6 22.8 21.1 81 2.3 SE 32 39 17 21 1016.3 - 0.0
30/12:30am 24.6 22.7 20.9 80 2.4 SE 32 39 17 21 1016.6 - 0.0
30/12:00am 24.8 23.0 21.1 80 2.4 SE 32 37 17 20 1016.7 1016.6 0.0
 
Date/Time
CST
Temp
°C
App
Temp
°C
Dew
Point
Rel
Hum
%
Delta-T
°C
Wind Press
QNH
hPa
Press
MSL
hPa
Rain
since 9 am
mm
Dir
 
Spd
km/h
Gust
km/h
Spd
kts
Gust
kts
29/11:30pm 24.7 22.6 21.0 80 2.4 SE 33 41 18 22 1016.8 - 0.0
29/11:00pm 24.8 22.7 20.9 79 2.6 SE 33 43 18 23 1016.8 - 0.0
29/10:30pm 24.9 22.5 21.0 79 2.6 SE 35 43 19 23 1016.9 - 0.0
29/10:00pm 24.9 22.5 21.0 79 2.6 SE 35 43 19 23 1016.7 - 0.0
29/09:30pm 25.1 22.8 21.2 79 2.6 SE 35 43 19 23 1016.6 - 0.0
29/09:00pm 24.9 22.9 21.2 80 2.4 SE 33 43 18 23 1016.5 1016.4 0.0
29/08:30pm 25.0 22.6 21.1 79 2.6 SE 35 43 19 23 1016.3 - 0.0
29/08:00pm 24.9 22.4 20.8 78 2.7 SE 35 48 19 26 1016.0 - 0.0
29/07:30pm 25.1 22.9 21.4 80 2.4 SE 35 43 19 23 1015.5 - 0.0
29/07:00pm 25.0 22.5 20.9 78 2.7 SE 35 46 19 25 1015.2 - 0.0
29/06:30pm 25.2 22.3 20.9 77 2.8 SE 37 46 20 25 1015.0 - 0.0
29/06:00pm 25.6 22.8 21.1 76 3.0 SE 37 44 20 24 1014.6 1014.5 0.0
29/05:30pm 25.9 23.4 20.9 74 3.3 SE 35 46 19 25 1014.4 - 0.0
29/05:00pm 26.5 23.5 21.3 73 3.5 ESE 39 46 21 25 1014.1 - 0.0
29/04:30pm 26.9 24.2 21.2 71 3.8 SE 37 46 20 25 1014.1 - 0.0
29/04:00pm 27.6 24.9 21.9 71 3.8 SE 39 48 21 26 1013.9 - 0.0
29/03:30pm 28.0 25.8 21.5 67 4.3 ESE 35 43 19 23 1013.9 - 0.0
29/03:00pm 27.3 23.9 20.6 67 4.4 SE 39 46 21 25 1013.9 1013.8 0.0
29/02:30pm 27.5 24.1 20.6 66 4.5 ESE 39 48 21 26 1014.0 - 0.0
29/02:00pm 28.5 26.5 21.8 67 4.5 ESE 35 43 19 23 1014.3 - 0.0
29/01:30pm 29.0 26.8 21.5 64 5.0 ESE 35 43 19 23 1014.7 - 0.0
29/01:00pm 28.9 27.0 21.4 64 5.0 SE 33 41 18 22 1015.0 - 0.0
29/12:30pm 29.0 27.5 22.0 66 4.7 SE 33 43 18 23 1015.4 - 0.0
29/12:00pm 28.7 26.6 21.7 66 4.7 ESE 35 43 19 23 1015.8 1015.7 0.0
29/11:30am 28.5 26.6 22.0 68 4.4 SE 35 41 19 22 1016.3 - 0.0
29/11:00am 27.3 24.8 20.9 68 4.2 ESE 35 46 19 25 1016.5 - 0.0
29/10:30am 26.5 24.4 21.0 72 3.6 ESE 33 43 18 23 1016.7 - 0.0
29/10:00am 27.6 25.5 21.6 70 4.0 ESE 35 44 19 24 1016.8 - 0.0
29/09:30am 26.5 23.3 21.0 72 3.6 ESE 39 46 21 25 1016.7 - 0.0
29/09:00am 26.4 24.3 21.6 75 3.2 ESE 35 46 19 25 1016.7 1016.6 0.0
29/08:30am 26.5 23.8 21.3 73 3.5 ESE 37 44 20 24 1016.7 - 0.0
29/08:00am 25.9 23.1 21.1 75 3.2 ESE 37 44 20 24 1016.5 - 0.0
29/07:30am 25.5 22.8 21.2 77 2.8 SE 37 44 20 24 1016.3 - 0.0
29/07:00am 24.9 22.1 21.0 79 2.6 SE 37 44 20 24 1016.1 - 0.0
29/06:30am 24.6 21.6 20.7 79 2.6 SE 37 46 20 25 1015.7 - 0.0
29/06:00am 24.6 21.3 20.9 80 2.4 SE 39 46 21 25 1015.6 1015.5 0.0
29/05:30am 24.7 21.9 21.0 80 2.4 SE 37 46 20 25 1015.5 - 0.0
29/05:00am 24.5 21.6 20.8 80 2.4 SE 37 44 20 24 1015.4 - 0.0
29/04:30am 24.6 22.7 21.3 82 2.2 SE 33 41 18 22 1015.6 - 0.0
29/04:00am 24.5 22.2 21.2 82 2.2 SE 35 41 19 22 1015.5 - 0.0
29/03:30am 24.4 22.0 21.1 82 2.2 SE 35 44 19 24 1015.3 - 0.0
29/03:00am 24.3 21.5 21.0 82 2.2 SE 37 46 20 25 1015.4 1015.3 0.0
29/02:30am 24.4 21.1 20.9 81 2.3 SE 39 48 21 26 1015.4 - 0.0
29/02:00am 24.6 21.9 21.3 82 2.2 SE 37 46 20 25 1015.6 - 0.0
29/01:30am 24.6 21.4 21.1 81 2.3 SSE 39 52 21 28 1015.7 - 0.0
29/01:00am 24.9 22.0 21.6 82 2.2 SE 39 50 21 27 1016.0 - 0.0
29/12:30am 24.7 21.8 20.8 79 2.6 SSE 37 46 20 25 1016.0 - 0.0
29/12:00am 24.7 22.2 20.8 79 2.6 SSE 35 44 19 24 1016.0 1015.9 0.0
 
Date/Time
CST
Temp
°C
App
Temp
°C
Dew
Point
Rel
Hum
%
Delta-T
°C
Wind Press
QNH
hPa
Press
MSL
hPa
Rain
since 9 am
mm
Dir
 
Spd
km/h
Gust
km/h
Spd
kts
Gust
kts
28/11:30pm 24.7 22.0 20.4 77 2.8 SE 35 46 19 25 1016.3 - 0.0
28/11:00pm 24.6 21.4 20.3 77 2.8 SSE 37 44 20 24 1016.3 - 0.0
28/10:30pm 24.9 21.5 20.6 77 2.8 SSE 39 46 21 25 1016.5 - 0.0
28/10:00pm 24.9 21.5 20.6 77 2.8 SSE 39 50 21 27 1016.5 - 0.0
28/09:30pm 25.1 22.0 21.2 79 2.6 SE 39 48 21 26 1016.6 - 0.0
28/09:00pm 24.9 21.5 20.6 77 2.8 SE 39 46 21 25 1016.7 1016.6 0.0

Other Formats:

Comma delimited format used in spreadsheet applications
http://www.bom.gov.au/fwo/IDD60801/IDD60801.94147.axf

JavaScript Object Notation format (JSON) in row-major order
http://www.bom.gov.au/fwo/IDD60801/IDD60801.94147.json